sensor_id;sensor_type;location;lat;lon;timestamp;temperature;humidity
34768;DHT22;21755;43.608;1.236;2023-08-06T00:00:17;17.70;99.90
34768;DHT22;21755;43.608;1.236;2023-08-06T00:02:42;17.60;99.90
34768;DHT22;21755;43.608;1.236;2023-08-06T00:05:08;17.60;99.90
34768;DHT22;21755;43.608;1.236;2023-08-06T00:07:34;17.60;99.90
34768;DHT22;21755;43.608;1.236;2023-08-06T00:10:00;17.60;99.90
34768;DHT22;21755;43.608;1.236;2023-08-06T00:12:26;17.60;99.90
34768;DHT22;21755;43.608;1.236;2023-08-06T00:14:52;17.70;99.90
34768;DHT22;21755;43.608;1.236;2023-08-06T00:17:18;17.70;99.90
34768;DHT22;21755;43.608;1.236;2023-08-06T00:19:44;17.70;99.90
34768;DHT22;21755;43.608;1.236;2023-08-06T00:22:10;17.70;99.90
34768;DHT22;21755;43.608;1.236;2023-08-06T00:24:36;17.60;99.90
34768;DHT22;21755;43.608;1.236;2023-08-06T00:27:02;17.70;99.90
34768;DHT22;21755;43.608;1.236;2023-08-06T00:29:28;17.80;99.90
34768;DHT22;21755;43.608;1.236;2023-08-06T00:31:54;17.70;99.90
34768;DHT22;21755;43.608;1.236;2023-08-06T00:34:20;17.60;99.50
34768;DHT22;21755;43.608;1.236;2023-08-06T00:36:46;17.60;99.90
34768;DHT22;21755;43.608;1.236;2023-08-06T00:39:12;17.50;99.90
34768;DHT22;21755;43.608;1.236;2023-08-06T00:41:38;17.50;99.90
34768;DHT22;21755;43.608;1.236;2023-08-06T00:44:04;17.40;99.70
34768;DHT22;21755;43.608;1.236;2023-08-06T00:46:30;17.40;99.90
34768;DHT22;21755;43.608;1.236;2023-08-06T00:48:57;17.40;98.00
34768;DHT22;21755;43.608;1.236;2023-08-06T00:51:23;17.50;99.60
34768;DHT22;21755;43.608;1.236;2023-08-06T00:53:50;17.40;98.50
34768;DHT22;21755;43.608;1.236;2023-08-06T00:56:17;17.40;98.30
34768;DHT22;21755;43.608;1.236;2023-08-06T00:58:44;17.40;97.50
34768;DHT22;21755;43.608;1.236;2023-08-06T01:01:11;17.40;97.10
34768;DHT22;21755;43.608;1.236;2023-08-06T01:03:36;17.30;95.50
34768;DHT22;21755;43.608;1.236;2023-08-06T01:06:02;17.30;93.00
34768;DHT22;21755;43.608;1.236;2023-08-06T01:08:54;17.30;90.90
34768;DHT22;21755;43.608;1.236;2023-08-06T01:11:30;17.30;91.50
34768;DHT22;21755;43.608;1.236;2023-08-06T01:14:17;17.20;90.40
34768;DHT22;21755;43.608;1.236;2023-08-06T01:16:44;17.20;85.10
34768;DHT22;21755;43.608;1.236;2023-08-06T01:19:19;17.30;83.50
34768;DHT22;21755;43.608;1.236;2023-08-06T01:21:45;17.20;80.10
34768;DHT22;21755;43.608;1.236;2023-08-06T01:24:11;17.20;70.90
34768;DHT22;21755;43.608;1.236;2023-08-06T01:26:53;17.20;68.20
34768;DHT22;21755;43.608;1.236;2023-08-06T01:29:33;17.20;53.50
34768;DHT22;21755;43.608;1.236;2023-08-06T01:32:01;17.20;41.30
34768;DHT22;21755;43.608;1.236;2023-08-06T01:34:31;17.10;18.80
34768;DHT22;21755;43.608;1.236;2023-08-06T01:36:57;17.00;2.20
34768;DHT22;21755;43.608;1.236;2023-08-06T01:39:23;17.00;1.00
34768;DHT22;21755;43.608;1.236;2023-08-06T01:41:49;17.10;1.00
34768;DHT22;21755;43.608;1.236;2023-08-06T01:44:15;17.00;1.00
34768;DHT22;21755;43.608;1.236;2023-08-06T01:46:41;17.00;1.00
34768;DHT22;21755;43.608;1.236;2023-08-06T01:49:07;17.00;1.00
34768;DHT22;21755;43.608;1.236;2023-08-06T01:51:33;17.00;1.00
34768;DHT22;21755;43.608;1.236;2023-08-06T01:53:59;17.00;1.00
34768;DHT22;21755;43.608;1.236;2023-08-06T01:56:25;16.90;1.00
34768;DHT22;21755;43.608;1.236;2023-08-06T01:58:51;16.90;1.00
34768;DHT22;21755;43.608;1.236;2023-08-06T02:01:17;16.90;1.00
34768;DHT22;21755;43.608;1.236;2023-08-06T02:03:42;16.90;1.00
34768;DHT22;21755;43.608;1.236;2023-08-06T02:06:08;16.90;1.00
34768;DHT22;21755;43.608;1.236;2023-08-06T02:08:34;16.90;1.00
34768;DHT22;21755;43.608;1.236;2023-08-06T02:11:00;16.90;1.00
34768;DHT22;21755;43.608;1.236;2023-08-06T02:13:27;17.00;1.00
34768;DHT22;21755;43.608;1.236;2023-08-06T02:15:53;16.90;1.00
34768;DHT22;21755;43.608;1.236;2023-08-06T02:18:19;16.90;1.00
34768;DHT22;21755;43.608;1.236;2023-08-06T02:20:58;16.90;1.00
34768;DHT22;21755;43.608;1.236;2023-08-06T02:23:25;17.00;1.00
34768;DHT22;21755;43.608;1.236;2023-08-06T02:26:04;17.00;1.00
34768;DHT22;21755;43.608;1.236;2023-08-06T02:28:31;17.00;1.00
34768;DHT22;21755;43.608;1.236;2023-08-06T02:30:57;17.10;1.00
34768;DHT22;21755;43.608;1.236;2023-08-06T02:33:23;17.00;1.00
34768;DHT22;21755;43.608;1.236;2023-08-06T02:36:02;17.00;99.90
34768;DHT22;21755;43.608;1.236;2023-08-06T02:38:31;17.00;99.90
34768;DHT22;21755;43.608;1.236;2023-08-06T02:40:57;17.00;99.90
34768;DHT22;21755;43.608;1.236;2023-08-06T02:43:23;16.90;99.90
34768;DHT22;21755;43.608;1.236;2023-08-06T02:45:49;17.00;99.90
34768;DHT22;21755;43.608;1.236;2023-08-06T02:48:15;17.00;99.90
34768;DHT22;21755;43.608;1.236;2023-08-06T02:50:43;17.00;99.90
34768;DHT22;21755;43.608;1.236;2023-08-06T02:53:10;17.10;1.00
34768;DHT22;21755;43.608;1.236;2023-08-06T02:55:36;17.10;99.90
34768;DHT22;21755;43.608;1.236;2023-08-06T02:58:02;17.10;99.90
34768;DHT22;21755;43.608;1.236;2023-08-06T03:00:28;17.00;99.90
34768;DHT22;21755;43.608;1.236;2023-08-06T03:02:54;17.00;99.90
34768;DHT22;21755;43.608;1.236;2023-08-06T03:05:20;17.00;99.90
34768;DHT22;21755;43.608;1.236;2023-08-06T03:07:45;17.00;99.90
34768;DHT22;21755;43.608;1.236;2023-08-06T03:10:11;17.00;99.90
34768;DHT22;21755;43.608;1.236;2023-08-06T03:12:38;17.00;1.00
34768;DHT22;21755;43.608;1.236;2023-08-06T03:15:05;17.10;1.00
34768;DHT22;21755;43.608;1.236;2023-08-06T03:17:30;17.10;1.00
34768;DHT22;21755;43.608;1.236;2023-08-06T03:19:56;17.00;1.00
34768;DHT22;21755;43.608;1.236;2023-08-06T03:22:22;17.00;1.00
34768;DHT22;21755;43.608;1.236;2023-08-06T03:24:50;17.00;1.00
34768;DHT22;21755;43.608;1.236;2023-08-06T03:27:17;17.10;1.00
34768;DHT22;21755;43.608;1.236;2023-08-06T03:29:43;17.10;1.00
34768;DHT22;21755;43.608;1.236;2023-08-06T03:32:08;17.10;1.00
34768;DHT22;21755;43.608;1.236;2023-08-06T03:34:34;17.20;1.00
34768;DHT22;21755;43.608;1.236;2023-08-06T03:37:00;17.10;1.00
34768;DHT22;21755;43.608;1.236;2023-08-06T03:39:26;17.10;99.90
34768;DHT22;21755;43.608;1.236;2023-08-06T03:41:52;17.10;99.90
34768;DHT22;21755;43.608;1.236;2023-08-06T03:44:17;17.10;99.90
34768;DHT22;21755;43.608;1.236;2023-08-06T03:46:43;17.10;99.90
34768;DHT22;21755;43.608;1.236;2023-08-06T03:49:09;17.10;99.90
34768;DHT22;21755;43.608;1.236;2023-08-06T03:51:35;17.10;99.90
34768;DHT22;21755;43.608;1.236;2023-08-06T03:54:00;17.10;99.90
34768;DHT22;21755;43.608;1.236;2023-08-06T03:56:26;17.10;99.90
34768;DHT22;21755;43.608;1.236;2023-08-06T03:58:53;17.10;99.90
34768;DHT22;21755;43.608;1.236;2023-08-06T04:01:18;17.10;1.00
34768;DHT22;21755;43.608;1.236;2023-08-06T04:03:44;17.10;1.00
34768;DHT22;21755;43.608;1.236;2023-08-06T04:06:10;17.10;1.00
34768;DHT22;21755;43.608;1.236;2023-08-06T04:08:36;17.00;1.00
34768;DHT22;21755;43.608;1.236;2023-08-06T04:11:01;17.10;1.00
34768;DHT22;21755;43.608;1.236;2023-08-06T04:13:27;17.00;1.00
34768;DHT22;21755;43.608;1.236;2023-08-06T04:15:53;17.00;1.00
34768;DHT22;21755;43.608;1.236;2023-08-06T04:18:19;17.00;1.00
34768;DHT22;21755;43.608;1.236;2023-08-06T04:20:46;17.00;1.00
34768;DHT22;21755;43.608;1.236;2023-08-06T04:23:12;17.00;1.00
34768;DHT22;21755;43.608;1.236;2023-08-06T04:25:38;17.00;1.00
34768;DHT22;21755;43.608;1.236;2023-08-06T04:28:04;17.00;1.00
34768;DHT22;21755;43.608;1.236;2023-08-06T04:30:30;17.00;1.00
34768;DHT22;21755;43.608;1.236;2023-08-06T04:32:59;17.00;1.00
34768;DHT22;21755;43.608;1.236;2023-08-06T04:35:25;17.10;1.00
34768;DHT22;21755;43.608;1.236;2023-08-06T04:37:50;17.00;1.00
34768;DHT22;21755;43.608;1.236;2023-08-06T04:40:16;17.00;1.00
34768;DHT22;21755;43.608;1.236;2023-08-06T04:42:42;17.00;1.00
34768;DHT22;21755;43.608;1.236;2023-08-06T04:45:08;17.00;1.00
34768;DHT22;21755;43.608;1.236;2023-08-06T04:47:34;17.00;1.00
34768;DHT22;21755;43.608;1.236;2023-08-06T04:50:00;16.90;1.00
34768;DHT22;21755;43.608;1.236;2023-08-06T04:52:26;16.90;1.00
34768;DHT22;21755;43.608;1.236;2023-08-06T04:54:54;17.00;1.00
34768;DHT22;21755;43.608;1.236;2023-08-06T04:57:20;17.00;1.00
34768;DHT22;21755;43.608;1.236;2023-08-06T04:59:46;16.90;1.00
34768;DHT22;21755;43.608;1.236;2023-08-06T05:02:12;16.90;1.00
34768;DHT22;21755;43.608;1.236;2023-08-06T05:04:38;16.90;1.00
34768;DHT22;21755;43.608;1.236;2023-08-06T05:07:05;16.90;1.00
34768;DHT22;21755;43.608;1.236;2023-08-06T05:09:31;16.80;1.00
34768;DHT22;21755;43.608;1.236;2023-08-06T05:11:57;16.90;1.00
34768;DHT22;21755;43.608;1.236;2023-08-06T05:14:23;16.80;1.00
34768;DHT22;21755;43.608;1.236;2023-08-06T05:16:48;16.90;1.00
34768;DHT22;21755;43.608;1.236;2023-08-06T05:19:14;16.90;1.00
34768;DHT22;21755;43.608;1.236;2023-08-06T05:21:40;16.90;1.00
34768;DHT22;21755;43.608;1.236;2023-08-06T05:24:06;16.90;1.00
34768;DHT22;21755;43.608;1.236;2023-08-06T05:26:31;16.90;1.00
34768;DHT22;21755;43.608;1.236;2023-08-06T05:28:57;16.90;1.00
34768;DHT22;21755;43.608;1.236;2023-08-06T05:31:23;16.90;1.00
34768;DHT22;21755;43.608;1.236;2023-08-06T05:33:49;16.80;1.00
34768;DHT22;21755;43.608;1.236;2023-08-06T05:36:15;16.80;1.00
34768;DHT22;21755;43.608;1.236;2023-08-06T05:38:41;16.80;1.00
34768;DHT22;21755;43.608;1.236;2023-08-06T05:41:07;16.80;1.00
34768;DHT22;21755;43.608;1.236;2023-08-06T05:43:32;16.80;1.00
34768;DHT22;21755;43.608;1.236;2023-08-06T05:45:58;16.90;1.00
34768;DHT22;21755;43.608;1.236;2023-08-06T05:48:24;16.90;1.00
34768;DHT22;21755;43.608;1.236;2023-08-06T05:50:51;16.90;1.00
34768;DHT22;21755;43.608;1.236;2023-08-06T05:53:17;16.90;1.00
34768;DHT22;21755;43.608;1.236;2023-08-06T05:55:43;16.90;1.00
34768;DHT22;21755;43.608;1.236;2023-08-06T05:58:09;16.90;1.00
34768;DHT22;21755;43.608;1.236;2023-08-06T06:00:35;16.90;1.00
34768;DHT22;21755;43.608;1.236;2023-08-06T06:03:01;16.90;1.00
34768;DHT22;21755;43.608;1.236;2023-08-06T06:05:27;16.90;1.00
34768;DHT22;21755;43.608;1.236;2023-08-06T06:07:53;17.00;1.00
34768;DHT22;21755;43.608;1.236;2023-08-06T06:10:19;17.00;1.00
34768;DHT22;21755;43.608;1.236;2023-08-06T06:12:45;17.00;1.00
34768;DHT22;21755;43.608;1.236;2023-08-06T06:15:11;17.00;1.00
34768;DHT22;21755;43.608;1.236;2023-08-06T06:17:36;17.20;1.00
34768;DHT22;21755;43.608;1.236;2023-08-06T06:20:02;17.20;1.00
34768;DHT22;21755;43.608;1.236;2023-08-06T06:22:30;17.20;1.00
34768;DHT22;21755;43.608;1.236;2023-08-06T06:24:56;17.20;1.00
34768;DHT22;21755;43.608;1.236;2023-08-06T06:27:21;17.10;1.00
34768;DHT22;21755;43.608;1.236;2023-08-06T06:29:47;17.20;1.00
34768;DHT22;21755;43.608;1.236;2023-08-06T06:32:13;17.10;1.00
34768;DHT22;21755;43.608;1.236;2023-08-06T06:34:39;17.20;1.00
34768;DHT22;21755;43.608;1.236;2023-08-06T06:37:05;17.20;1.00
34768;DHT22;21755;43.608;1.236;2023-08-06T06:39:31;17.20;1.00
34768;DHT22;21755;43.608;1.236;2023-08-06T06:41:56;17.20;1.00
34768;DHT22;21755;43.608;1.236;2023-08-06T06:44:22;17.20;99.90
34768;DHT22;21755;43.608;1.236;2023-08-06T06:46:48;17.20;99.90
34768;DHT22;21755;43.608;1.236;2023-08-06T06:49:14;17.30;99.90
34768;DHT22;21755;43.608;1.236;2023-08-06T06:51:40;17.30;99.90
34768;DHT22;21755;43.608;1.236;2023-08-06T06:54:06;17.30;99.90
34768;DHT22;21755;43.608;1.236;2023-08-06T06:56:31;17.40;99.90
34768;DHT22;21755;43.608;1.236;2023-08-06T06:58:57;17.40;99.90
34768;DHT22;21755;43.608;1.236;2023-08-06T07:01:23;17.40;99.90
34768;DHT22;21755;43.608;1.236;2023-08-06T07:03:49;17.40;99.90
34768;DHT22;21755;43.608;1.236;2023-08-06T07:06:15;17.50;99.90
34768;DHT22;21755;43.608;1.236;2023-08-06T07:08:41;17.60;99.90
34768;DHT22;21755;43.608;1.236;2023-08-06T07:11:07;17.60;99.90
34768;DHT22;21755;43.608;1.236;2023-08-06T07:13:34;17.60;99.90
34768;DHT22;21755;43.608;1.236;2023-08-06T07:16:00;17.60;99.90
34768;DHT22;21755;43.608;1.236;2023-08-06T07:18:26;17.70;99.90
34768;DHT22;21755;43.608;1.236;2023-08-06T07:20:52;17.80;99.90
34768;DHT22;21755;43.608;1.236;2023-08-06T07:23:24;17.70;79.60
34768;DHT22;21755;43.608;1.236;2023-08-06T07:25:50;17.70;77.40
34768;DHT22;21755;43.608;1.236;2023-08-06T07:28:16;17.70;1.00
34768;DHT22;21755;43.608;1.236;2023-08-06T07:30:43;17.80;29.80
34768;DHT22;21755;43.608;1.236;2023-08-06T07:33:09;17.80;1.00
34768;DHT22;21755;43.608;1.236;2023-08-06T07:35:35;17.90;1.00
34768;DHT22;21755;43.608;1.236;2023-08-06T07:38:01;17.90;99.90
34768;DHT22;21755;43.608;1.236;2023-08-06T07:40:27;17.90;99.90
34768;DHT22;21755;43.608;1.236;2023-08-06T07:42:54;18.00;99.90
34768;DHT22;21755;43.608;1.236;2023-08-06T07:45:20;18.10;1.00
34768;DHT22;21755;43.608;1.236;2023-08-06T07:47:46;18.10;99.90
34768;DHT22;21755;43.608;1.236;2023-08-06T07:50:12;18.20;99.90
34768;DHT22;21755;43.608;1.236;2023-08-06T07:52:38;18.20;59.40
34768;DHT22;21755;43.608;1.236;2023-08-06T07:55:04;18.40;99.90
34768;DHT22;21755;43.608;1.236;2023-08-06T07:57:31;18.60;34.40
34768;DHT22;21755;43.608;1.236;2023-08-06T07:59:57;18.60;1.00
34768;DHT22;21755;43.608;1.236;2023-08-06T08:02:24;18.70;1.00
34768;DHT22;21755;43.608;1.236;2023-08-06T08:04:55;18.70;99.90
34768;DHT22;21755;43.608;1.236;2023-08-06T08:07:21;18.80;99.90
34768;DHT22;21755;43.608;1.236;2023-08-06T08:09:47;18.90;99.90
34768;DHT22;21755;43.608;1.236;2023-08-06T08:12:14;18.80;1.00
34768;DHT22;21755;43.608;1.236;2023-08-06T08:14:40;18.80;99.90
34768;DHT22;21755;43.608;1.236;2023-08-06T08:17:06;18.70;99.90
34768;DHT22;21755;43.608;1.236;2023-08-06T08:19:32;18.80;1.00
34768;DHT22;21755;43.608;1.236;2023-08-06T08:21:58;18.90;99.90
34768;DHT22;21755;43.608;1.236;2023-08-06T08:24:24;18.90;30.90
34768;DHT22;21755;43.608;1.236;2023-08-06T08:26:51;19.00;1.00
34768;DHT22;21755;43.608;1.236;2023-08-06T08:29:17;19.00;1.00
34768;DHT22;21755;43.608;1.236;2023-08-06T08:31:43;19.10;99.90
34768;DHT22;21755;43.608;1.236;2023-08-06T08:34:10;19.10;99.90
34768;DHT22;21755;43.608;1.236;2023-08-06T08:36:35;19.10;99.90
34768;DHT22;21755;43.608;1.236;2023-08-06T08:39:01;19.10;99.90
34768;DHT22;21755;43.608;1.236;2023-08-06T08:41:31;19.20;99.90
34768;DHT22;21755;43.608;1.236;2023-08-06T08:43:59;19.40;99.90
34768;DHT22;21755;43.608;1.236;2023-08-06T08:46:30;19.60;99.90
34768;DHT22;21755;43.608;1.236;2023-08-06T08:48:57;19.80;39.30
34768;DHT22;21755;43.608;1.236;2023-08-06T08:51:27;19.60;47.60
34768;DHT22;21755;43.608;1.236;2023-08-06T08:53:53;19.60;99.90
34768;DHT22;21755;43.608;1.236;2023-08-06T08:56:23;19.50;1.00
34768;DHT22;21755;43.608;1.236;2023-08-06T08:58:49;19.30;1.00
34768;DHT22;21755;43.608;1.236;2023-08-06T09:01:16;19.20;1.00
34768;DHT22;21755;43.608;1.236;2023-08-06T09:03:43;19.30;84.20
34768;DHT22;21755;43.608;1.236;2023-08-06T09:06:11;19.30;99.90
34768;DHT22;21755;43.608;1.236;2023-08-06T09:08:43;19.30;94.50
34768;DHT22;21755;43.608;1.236;2023-08-06T09:11:12;19.50;1.00
34768;DHT22;21755;43.608;1.236;2023-08-06T09:13:38;19.70;1.00
34768;DHT22;21755;43.608;1.236;2023-08-06T09:16:04;19.80;1.00
34768;DHT22;21755;43.608;1.236;2023-08-06T09:18:31;19.90;1.00
34768;DHT22;21755;43.608;1.236;2023-08-06T09:20:57;19.80;99.90
34768;DHT22;21755;43.608;1.236;2023-08-06T09:23:30;19.80;99.90
34768;DHT22;21755;43.608;1.236;2023-08-06T09:26:00;20.40;99.90
34768;DHT22;21755;43.608;1.236;2023-08-06T09:28:39;20.70;99.90
34768;DHT22;21755;43.608;1.236;2023-08-06T09:31:08;20.20;99.90
34768;DHT22;21755;43.608;1.236;2023-08-06T09:33:36;19.90;99.90
34768;DHT22;21755;43.608;1.236;2023-08-06T09:36:09;19.80;99.90
34768;DHT22;21755;43.608;1.236;2023-08-06T09:38:38;19.80;99.90
34768;DHT22;21755;43.608;1.236;2023-08-06T09:47:36;20.10;99.90
34768;DHT22;21755;43.608;1.236;2023-08-06T09:50:02;20.60;99.90
34768;DHT22;21755;43.608;1.236;2023-08-06T09:52:28;21.10;99.90
34768;DHT22;21755;43.608;1.236;2023-08-06T09:54:54;21.10;99.90
34768;DHT22;21755;43.608;1.236;2023-08-06T09:57:24;21.20;99.90
34768;DHT22;21755;43.608;1.236;2023-08-06T09:59:51;20.90;98.60
34768;DHT22;21755;43.608;1.236;2023-08-06T10:02:18;21.10;64.00
34768;DHT22;21755;43.608;1.236;2023-08-06T10:08:09;21.30;33.50
34768;DHT22;21755;43.608;1.236;2023-08-06T10:10:50;20.80;38.20
34768;DHT22;21755;43.608;1.236;2023-08-06T10:13:17;20.70;48.50
34768;DHT22;21755;43.608;1.236;2023-08-06T10:15:44;21.10;34.50
34768;DHT22;21755;43.608;1.236;2023-08-06T10:18:11;21.20;34.70
34768;DHT22;21755;43.608;1.236;2023-08-06T10:20:38;20.90;29.60
34768;DHT22;21755;43.608;1.236;2023-08-06T10:23:06;20.70;20.50
34768;DHT22;21755;43.608;1.236;2023-08-06T10:25:41;20.60;24.70
34768;DHT22;21755;43.608;1.236;2023-08-06T10:28:09;20.60;9.30
34768;DHT22;21755;43.608;1.236;2023-08-06T10:30:45;20.60;20.00
34768;DHT22;21755;43.608;1.236;2023-08-06T10:33:11;20.60;23.10
34768;DHT22;21755;43.608;1.236;2023-08-06T10:35:47;20.80;24.00
34768;DHT22;21755;43.608;1.236;2023-08-06T10:38:16;21.00;8.90
34768;DHT22;21755;43.608;1.236;2023-08-06T10:43:41;21.80;12.80
34768;DHT22;21755;43.608;1.236;2023-08-06T10:46:26;21.90;1.00
34768;DHT22;21755;43.608;1.236;2023-08-06T10:48:52;21.70;1.00
34768;DHT22;21755;43.608;1.236;2023-08-06T10:51:18;21.60;1.00
34768;DHT22;21755;43.608;1.236;2023-08-06T10:53:49;21.40;1.00
34768;DHT22;21755;43.608;1.236;2023-08-06T10:56:22;21.70;1.00
34768;DHT22;21755;43.608;1.236;2023-08-06T10:58:54;22.20;1.00
34768;DHT22;21755;43.608;1.236;2023-08-06T11:01:22;22.50;1.00
34768;DHT22;21755;43.608;1.236;2023-08-06T11:03:49;22.90;1.00
34768;DHT22;21755;43.608;1.236;2023-08-06T11:06:20;22.30;1.00
34768;DHT22;21755;43.608;1.236;2023-08-06T11:08:51;21.90;1.00
34768;DHT22;21755;43.608;1.236;2023-08-06T11:11:17;21.60;1.00
34768;DHT22;21755;43.608;1.236;2023-08-06T11:13:45;21.60;1.00
34768;DHT22;21755;43.608;1.236;2023-08-06T11:16:19;21.60;1.00
34768;DHT22;21755;43.608;1.236;2023-08-06T11:18:45;21.90;1.00
34768;DHT22;21755;43.608;1.236;2023-08-06T11:21:11;21.80;1.00
34768;DHT22;21755;43.608;1.236;2023-08-06T11:23:38;22.30;1.00
34768;DHT22;21755;43.608;1.236;2023-08-06T11:26:04;22.50;1.00
34768;DHT22;21755;43.608;1.236;2023-08-06T11:28:30;22.30;1.00
34768;DHT22;21755;43.608;1.236;2023-08-06T11:30:56;22.00;1.00
34768;DHT22;21755;43.608;1.236;2023-08-06T11:33:23;21.70;1.00
34768;DHT22;21755;43.608;1.236;2023-08-06T11:35:54;21.50;1.00
34768;DHT22;21755;43.608;1.236;2023-08-06T11:38:21;21.60;1.00
34768;DHT22;21755;43.608;1.236;2023-08-06T11:40:47;22.20;1.00
34768;DHT22;21755;43.608;1.236;2023-08-06T11:43:14;22.50;99.90
34768;DHT22;21755;43.608;1.236;2023-08-06T11:45:40;22.30;99.90
34768;DHT22;21755;43.608;1.236;2023-08-06T11:48:07;22.40;99.90
34768;DHT22;21755;43.608;1.236;2023-08-06T11:50:38;22.80;99.90
34768;DHT22;21755;43.608;1.236;2023-08-06T11:53:05;22.70;99.90
34768;DHT22;21755;43.608;1.236;2023-08-06T11:55:31;22.60;99.90
34768;DHT22;21755;43.608;1.236;2023-08-06T11:57:57;23.10;99.90
34768;DHT22;21755;43.608;1.236;2023-08-06T12:00:26;23.60;99.90
34768;DHT22;21755;43.608;1.236;2023-08-06T12:02:53;23.30;99.90
34768;DHT22;21755;43.608;1.236;2023-08-06T12:05:28;22.90;99.90
34768;DHT22;21755;43.608;1.236;2023-08-06T12:07:58;22.70;99.90
34768;DHT22;21755;43.608;1.236;2023-08-06T12:10:26;22.70;99.90
34768;DHT22;21755;43.608;1.236;2023-08-06T12:12:53;23.30;99.90
34768;DHT22;21755;43.608;1.236;2023-08-06T12:15:19;22.90;99.90
34768;DHT22;21755;43.608;1.236;2023-08-06T12:17:44;22.80;99.90
34768;DHT22;21755;43.608;1.236;2023-08-06T12:20:10;23.50;99.90
34768;DHT22;21755;43.608;1.236;2023-08-06T12:22:37;23.90;99.90
34768;DHT22;21755;43.608;1.236;2023-08-06T12:25:07;24.00;99.90
34768;DHT22;21755;43.608;1.236;2023-08-06T12:27:38;24.00;99.90
34768;DHT22;21755;43.608;1.236;2023-08-06T12:30:04;23.90;99.90
34768;DHT22;21755;43.608;1.236;2023-08-06T12:32:31;23.50;99.90
34768;DHT22;21755;43.608;1.236;2023-08-06T12:34:56;23.70;99.90
34768;DHT22;21755;43.608;1.236;2023-08-06T12:37:23;23.60;99.90
34768;DHT22;21755;43.608;1.236;2023-08-06T12:39:49;23.30;99.90
34768;DHT22;21755;43.608;1.236;2023-08-06T12:42:15;23.40;99.90
34768;DHT22;21755;43.608;1.236;2023-08-06T12:44:41;23.80;99.90
34768;DHT22;21755;43.608;1.236;2023-08-06T12:47:07;23.80;99.90
34768;DHT22;21755;43.608;1.236;2023-08-06T12:49:33;24.00;99.90
34768;DHT22;21755;43.608;1.236;2023-08-06T12:51:59;24.20;99.90
34768;DHT22;21755;43.608;1.236;2023-08-06T12:54:28;23.70;99.90
34768;DHT22;21755;43.608;1.236;2023-08-06T12:56:54;23.60;99.90
34768;DHT22;21755;43.608;1.236;2023-08-06T12:59:20;23.90;99.90
34768;DHT22;21755;43.608;1.236;2023-08-06T13:01:46;24.20;99.90
34768;DHT22;21755;43.608;1.236;2023-08-06T13:04:12;24.40;99.90
34768;DHT22;21755;43.608;1.236;2023-08-06T13:06:38;24.10;99.90
34768;DHT22;21755;43.608;1.236;2023-08-06T13:09:07;23.80;99.90
34768;DHT22;21755;43.608;1.236;2023-08-06T13:11:37;23.90;99.90
34768;DHT22;21755;43.608;1.236;2023-08-06T13:14:11;23.70;99.90
34768;DHT22;21755;43.608;1.236;2023-08-06T13:16:39;23.40;99.90
34768;DHT22;21755;43.608;1.236;2023-08-06T13:19:05;23.80;99.90
34768;DHT22;21755;43.608;1.236;2023-08-06T13:24:08;24.40;99.90
34768;DHT22;21755;43.608;1.236;2023-08-06T13:26:34;24.20;99.90
34768;DHT22;21755;43.608;1.236;2023-08-06T13:29:01;24.20;99.90
34768;DHT22;21755;43.608;1.236;2023-08-06T13:31:28;24.40;99.90
34768;DHT22;21755;43.608;1.236;2023-08-06T13:33:54;24.40;99.90
34768;DHT22;21755;43.608;1.236;2023-08-06T13:36:24;24.80;99.90
34768;DHT22;21755;43.608;1.236;2023-08-06T13:38:49;25.00;99.90
34768;DHT22;21755;43.608;1.236;2023-08-06T13:41:16;25.20;99.90
34768;DHT22;21755;43.608;1.236;2023-08-06T13:43:42;25.20;99.90
34768;DHT22;21755;43.608;1.236;2023-08-06T13:46:09;25.10;99.90
34768;DHT22;21755;43.608;1.236;2023-08-06T13:48:39;25.20;99.90
34768;DHT22;21755;43.608;1.236;2023-08-06T13:51:05;25.20;99.90
34768;DHT22;21755;43.608;1.236;2023-08-06T13:53:31;24.90;99.90
34768;DHT22;21755;43.608;1.236;2023-08-06T13:55:56;24.50;99.90
34768;DHT22;21755;43.608;1.236;2023-08-06T13:58:23;24.20;99.90
34768;DHT22;21755;43.608;1.236;2023-08-06T14:00:49;24.00;99.90
34768;DHT22;21755;43.608;1.236;2023-08-06T14:03:18;23.80;99.90
34768;DHT22;21755;43.608;1.236;2023-08-06T14:05:44;23.90;99.90
34768;DHT22;21755;43.608;1.236;2023-08-06T14:08:10;24.00;99.90
34768;DHT22;21755;43.608;1.236;2023-08-06T14:10:36;24.30;99.90
34768;DHT22;21755;43.608;1.236;2023-08-06T14:13:02;24.00;99.90
34768;DHT22;21755;43.608;1.236;2023-08-06T14:15:28;24.50;99.90
34768;DHT22;21755;43.608;1.236;2023-08-06T14:17:53;24.20;99.90
34768;DHT22;21755;43.608;1.236;2023-08-06T14:20:19;24.30;99.90
34768;DHT22;21755;43.608;1.236;2023-08-06T14:22:45;24.20;99.90
34768;DHT22;21755;43.608;1.236;2023-08-06T14:25:11;24.70;99.90
34768;DHT22;21755;43.608;1.236;2023-08-06T14:27:37;24.90;99.90
34768;DHT22;21755;43.608;1.236;2023-08-06T14:30:06;24.80;99.90
34768;DHT22;21755;43.608;1.236;2023-08-06T14:32:32;24.70;99.90
34768;DHT22;21755;43.608;1.236;2023-08-06T14:34:58;24.40;99.90
34768;DHT22;21755;43.608;1.236;2023-08-06T14:37:24;24.50;99.90
34768;DHT22;21755;43.608;1.236;2023-08-06T14:39:51;24.50;99.90
34768;DHT22;21755;43.608;1.236;2023-08-06T14:42:17;24.30;99.90
34768;DHT22;21755;43.608;1.236;2023-08-06T14:44:43;24.00;99.90
34768;DHT22;21755;43.608;1.236;2023-08-06T14:47:09;23.90;99.90
34768;DHT22;21755;43.608;1.236;2023-08-06T14:49:35;24.10;99.90
34768;DHT22;21755;43.608;1.236;2023-08-06T14:52:01;23.90;99.90
34768;DHT22;21755;43.608;1.236;2023-08-06T14:54:27;23.80;99.90
34768;DHT22;21755;43.608;1.236;2023-08-06T14:56:53;24.20;99.90
34768;DHT22;21755;43.608;1.236;2023-08-06T14:59:19;24.60;99.90
34768;DHT22;21755;43.608;1.236;2023-08-06T15:01:45;24.60;99.90
34768;DHT22;21755;43.608;1.236;2023-08-06T15:04:11;24.80;99.90
34768;DHT22;21755;43.608;1.236;2023-08-06T15:06:37;24.90;99.90
34768;DHT22;21755;43.608;1.236;2023-08-06T15:09:02;25.20;99.90
34768;DHT22;21755;43.608;1.236;2023-08-06T15:11:28;24.70;99.90
34768;DHT22;21755;43.608;1.236;2023-08-06T15:13:54;24.30;99.90
34768;DHT22;21755;43.608;1.236;2023-08-06T15:16:20;24.20;99.90
34768;DHT22;21755;43.608;1.236;2023-08-06T15:18:46;24.50;99.90
34768;DHT22;21755;43.608;1.236;2023-08-06T15:21:15;24.10;99.90
34768;DHT22;21755;43.608;1.236;2023-08-06T15:23:41;23.70;99.90
34768;DHT22;21755;43.608;1.236;2023-08-06T15:26:07;23.70;99.90
34768;DHT22;21755;43.608;1.236;2023-08-06T15:28:33;24.00;99.90
34768;DHT22;21755;43.608;1.236;2023-08-06T15:30:58;24.60;99.90
34768;DHT22;21755;43.608;1.236;2023-08-06T15:33:24;24.70;99.90
34768;DHT22;21755;43.608;1.236;2023-08-06T15:35:50;24.90;99.90
34768;DHT22;21755;43.608;1.236;2023-08-06T15:38:16;25.10;99.90
34768;DHT22;21755;43.608;1.236;2023-08-06T15:40:42;25.10;99.90
34768;DHT22;21755;43.608;1.236;2023-08-06T15:43:10;24.80;99.90
34768;DHT22;21755;43.608;1.236;2023-08-06T15:45:36;24.50;99.90
34768;DHT22;21755;43.608;1.236;2023-08-06T15:48:02;24.30;99.90
34768;DHT22;21755;43.608;1.236;2023-08-06T15:50:28;24.30;99.90